sensor_id;sensor_type;location;lat;lon;timestamp;P1;durP1;ratioP1;P2;durP2;ratioP2
52768;SDS011;40471;44.534;18.644;2023-05-20T00:00:08;22.20;;;16.53;;
52768;SDS011;40471;44.534;18.644;2023-05-20T00:02:35;24.55;;;18.75;;
52768;SDS011;40471;44.534;18.644;2023-05-20T00:05:00;20.95;;;18.63;;
52768;SDS011;40471;44.534;18.644;2023-05-20T00:07:26;28.73;;;19.97;;
52768;SDS011;40471;44.534;18.644;2023-05-20T00:09:52;22.75;;;17.35;;
52768;SDS011;40471;44.534;18.644;2023-05-20T00:12:18;22.40;;;16.85;;
52768;SDS011;40471;44.534;18.644;2023-05-20T00:14:44;28.23;;;17.47;;
52768;SDS011;40471;44.534;18.644;2023-05-20T00:17:10;31.05;;;19.00;;
52768;SDS011;40471;44.534;18.644;2023-05-20T00:19:35;30.77;;;18.27;;
52768;SDS011;40471;44.534;18.644;2023-05-20T00:22:01;34.00;;;20.47;;
52768;SDS011;40471;44.534;18.644;2023-05-20T00:24:27;30.17;;;18.33;;
52768;SDS011;40471;44.534;18.644;2023-05-20T00:26:53;38.53;;;19.73;;
52768;SDS011;40471;44.534;18.644;2023-05-20T00:29:20;32.17;;;20.37;;
52768;SDS011;40471;44.534;18.644;2023-05-20T00:31:46;36.10;;;22.98;;
52768;SDS011;40471;44.534;18.644;2023-05-20T00:34:12;27.53;;;20.73;;
52768;SDS011;40471;44.534;18.644;2023-05-20T00:36:37;38.50;;;20.83;;
52768;SDS011;40471;44.534;18.644;2023-05-20T00:39:03;28.07;;;18.27;;
52768;SDS011;40471;44.534;18.644;2023-05-20T00:41:29;24.07;;;17.30;;
52768;SDS011;40471;44.534;18.644;2023-05-20T00:43:55;34.73;;;17.53;;
52768;SDS011;40471;44.534;18.644;2023-05-20T00:46:22;27.05;;;17.33;;
52768;SDS011;40471;44.534;18.644;2023-05-20T00:48:49;29.08;;;20.08;;
52768;SDS011;40471;44.534;18.644;2023-05-20T00:53:42;25.48;;;17.90;;
52768;SDS011;40471;44.534;18.644;2023-05-20T00:56:08;27.33;;;16.50;;
52768;SDS011;40471;44.534;18.644;2023-05-20T00:58:34;21.50;;;16.02;;
52768;SDS011;40471;44.534;18.644;2023-05-20T01:01:01;31.60;;;17.90;;
52768;SDS011;40471;44.534;18.644;2023-05-20T01:03:28;30.10;;;18.70;;
52768;SDS011;40471;44.534;18.644;2023-05-20T01:05:54;30.92;;;19.58;;
52768;SDS011;40471;44.534;18.644;2023-05-20T01:08:20;24.33;;;16.20;;
52768;SDS011;40471;44.534;18.644;2023-05-20T01:10:48;28.70;;;17.58;;
52768;SDS011;40471;44.534;18.644;2023-05-20T01:13:20;21.17;;;16.40;;
52768;SDS011;40471;44.534;18.644;2023-05-20T01:15:52;22.13;;;14.82;;
52768;SDS011;40471;44.534;18.644;2023-05-20T01:18:19;26.13;;;16.73;;
52768;SDS011;40471;44.534;18.644;2023-05-20T01:20:50;27.95;;;16.90;;
52768;SDS011;40471;44.534;18.644;2023-05-20T01:23:17;20.70;;;14.25;;
52768;SDS011;40471;44.534;18.644;2023-05-20T01:25:43;23.70;;;16.90;;
52768;SDS011;40471;44.534;18.644;2023-05-20T01:28:09;20.83;;;16.10;;
52768;SDS011;40471;44.534;18.644;2023-05-20T01:30:43;22.45;;;14.75;;
52768;SDS011;40471;44.534;18.644;2023-05-20T01:33:15;19.77;;;12.90;;
52768;SDS011;40471;44.534;18.644;2023-05-20T01:35:43;21.27;;;14.05;;
52768;SDS011;40471;44.534;18.644;2023-05-20T01:38:09;19.97;;;13.67;;
52768;SDS011;40471;44.534;18.644;2023-05-20T01:40:36;23.98;;;14.60;;
52768;SDS011;40471;44.534;18.644;2023-05-20T01:45:29;24.70;;;14.88;;
52768;SDS011;40471;44.534;18.644;2023-05-20T01:47:55;22.02;;;12.73;;
52768;SDS011;40471;44.534;18.644;2023-05-20T01:50:21;26.27;;;16.73;;
52768;SDS011;40471;44.534;18.644;2023-05-20T01:52:47;28.07;;;14.90;;
52768;SDS011;40471;44.534;18.644;2023-05-20T01:55:12;23.57;;;16.57;;
52768;SDS011;40471;44.534;18.644;2023-05-20T01:57:38;23.93;;;14.73;;
52768;SDS011;40471;44.534;18.644;2023-05-20T02:00:04;20.70;;;15.00;;
52768;SDS011;40471;44.534;18.644;2023-05-20T02:02:30;21.70;;;14.18;;
52768;SDS011;40471;44.534;18.644;2023-05-20T02:04:56;21.67;;;14.43;;
52768;SDS011;40471;44.534;18.644;2023-05-20T02:07:22;23.43;;;16.10;;
52768;SDS011;40471;44.534;18.644;2023-05-20T02:09:47;26.37;;;16.03;;
52768;SDS011;40471;44.534;18.644;2023-05-20T02:12:13;22.60;;;14.70;;
52768;SDS011;40471;44.534;18.644;2023-05-20T02:14:45;23.92;;;14.10;;
52768;SDS011;40471;44.534;18.644;2023-05-20T02:17:12;25.38;;;13.32;;
52768;SDS011;40471;44.534;18.644;2023-05-20T02:19:40;21.10;;;14.65;;
52768;SDS011;40471;44.534;18.644;2023-05-20T02:22:06;23.63;;;13.70;;
52768;SDS011;40471;44.534;18.644;2023-05-20T02:24:32;34.00;;;17.73;;
52768;SDS011;40471;44.534;18.644;2023-05-20T02:26:58;30.13;;;14.47;;
52768;SDS011;40471;44.534;18.644;2023-05-20T02:29:24;26.27;;;13.93;;
52768;SDS011;40471;44.534;18.644;2023-05-20T02:31:50;19.60;;;12.63;;
52768;SDS011;40471;44.534;18.644;2023-05-20T02:34:16;33.50;;;15.33;;
52768;SDS011;40471;44.534;18.644;2023-05-20T02:36:42;22.25;;;15.35;;
52768;SDS011;40471;44.534;18.644;2023-05-20T02:39:08;22.13;;;13.50;;
52768;SDS011;40471;44.534;18.644;2023-05-20T02:41:34;18.53;;;13.20;;
52768;SDS011;40471;44.534;18.644;2023-05-20T02:44:00;20.98;;;13.68;;
52768;SDS011;40471;44.534;18.644;2023-05-20T02:46:26;19.50;;;13.00;;
52768;SDS011;40471;44.534;18.644;2023-05-20T02:48:52;16.33;;;11.73;;
52768;SDS011;40471;44.534;18.644;2023-05-20T02:51:17;21.83;;;12.23;;
52768;SDS011;40471;44.534;18.644;2023-05-20T02:53:43;21.60;;;12.37;;
52768;SDS011;40471;44.534;18.644;2023-05-20T02:56:10;22.10;;;12.35;;
52768;SDS011;40471;44.534;18.644;2023-05-20T02:58:35;18.10;;;12.17;;
52768;SDS011;40471;44.534;18.644;2023-05-20T03:01:01;17.20;;;12.13;;
52768;SDS011;40471;44.534;18.644;2023-05-20T03:03:27;16.15;;;13.07;;
52768;SDS011;40471;44.534;18.644;2023-05-20T03:05:53;26.10;;;13.07;;
52768;SDS011;40471;44.534;18.644;2023-05-20T03:08:19;19.87;;;12.20;;
52768;SDS011;40471;44.534;18.644;2023-05-20T03:10:46;26.92;;;11.48;;
52768;SDS011;40471;44.534;18.644;2023-05-20T03:13:12;17.23;;;11.35;;
52768;SDS011;40471;44.534;18.644;2023-05-20T03:15:39;17.90;;;12.32;;
52768;SDS011;40471;44.534;18.644;2023-05-20T03:18:06;15.52;;;11.35;;
52768;SDS011;40471;44.534;18.644;2023-05-20T03:20:35;15.70;;;11.18;;
52768;SDS011;40471;44.534;18.644;2023-05-20T03:23:02;16.00;;;10.77;;
52768;SDS011;40471;44.534;18.644;2023-05-20T03:25:28;15.13;;;10.35;;
52768;SDS011;40471;44.534;18.644;2023-05-20T03:27:54;15.32;;;11.18;;
52768;SDS011;40471;44.534;18.644;2023-05-20T03:30:22;22.23;;;12.52;;
52768;SDS011;40471;44.534;18.644;2023-05-20T03:32:48;21.33;;;12.50;;
52768;SDS011;40471;44.534;18.644;2023-05-20T03:35:14;23.10;;;11.85;;
52768;SDS011;40471;44.534;18.644;2023-05-20T03:37:40;15.10;;;10.70;;
52768;SDS011;40471;44.534;18.644;2023-05-20T03:40:06;21.23;;;12.47;;
52768;SDS011;40471;44.534;18.644;2023-05-20T03:42:34;14.55;;;11.68;;
52768;SDS011;40471;44.534;18.644;2023-05-20T03:45:01;18.05;;;12.48;;
52768;SDS011;40471;44.534;18.644;2023-05-20T03:47:27;18.10;;;11.43;;
52768;SDS011;40471;44.534;18.644;2023-05-20T03:49:53;19.70;;;12.73;;
52768;SDS011;40471;44.534;18.644;2023-05-20T03:52:19;18.70;;;12.80;;
52768;SDS011;40471;44.534;18.644;2023-05-20T03:54:45;16.10;;;11.38;;
52768;SDS011;40471;44.534;18.644;2023-05-20T03:57:11;14.93;;;13.30;;
52768;SDS011;40471;44.534;18.644;2023-05-20T03:59:37;22.93;;;13.07;;
52768;SDS011;40471;44.534;18.644;2023-05-20T04:02:03;22.13;;;15.50;;
52768;SDS011;40471;44.534;18.644;2023-05-20T04:04:29;19.88;;;13.00;;
52768;SDS011;40471;44.534;18.644;2023-05-20T04:06:56;27.30;;;13.45;;
52768;SDS011;40471;44.534;18.644;2023-05-20T04:09:24;31.98;;;14.18;;
52768;SDS011;40471;44.534;18.644;2023-05-20T04:11:51;25.00;;;15.07;;
52768;SDS011;40471;44.534;18.644;2023-05-20T04:14:16;31.93;;;16.40;;
52768;SDS011;40471;44.534;18.644;2023-05-20T04:16:42;31.63;;;17.40;;
52768;SDS011;40471;44.534;18.644;2023-05-20T04:19:09;30.45;;;17.70;;
52768;SDS011;40471;44.534;18.644;2023-05-20T04:21:36;30.73;;;18.13;;
52768;SDS011;40471;44.534;18.644;2023-05-20T04:26:28;43.75;;;17.88;;
52768;SDS011;40471;44.534;18.644;2023-05-20T04:28:54;103.63;;;21.10;;
52768;SDS011;40471;44.534;18.644;2023-05-20T04:31:23;46.90;;;18.40;;
52768;SDS011;40471;44.534;18.644;2023-05-20T04:33:52;26.92;;;16.23;;
52768;SDS011;40471;44.534;18.644;2023-05-20T04:36:18;30.80;;;17.92;;
52768;SDS011;40471;44.534;18.644;2023-05-20T04:38:44;41.37;;;19.00;;
52768;SDS011;40471;44.534;18.644;2023-05-20T04:41:12;31.10;;;16.67;;
52768;SDS011;40471;44.534;18.644;2023-05-20T04:43:37;28.50;;;14.98;;
52768;SDS011;40471;44.534;18.644;2023-05-20T04:46:04;25.83;;;15.15;;
52768;SDS011;40471;44.534;18.644;2023-05-20T04:48:30;17.58;;;12.52;;
52768;SDS011;40471;44.534;18.644;2023-05-20T04:50:56;22.83;;;12.70;;
52768;SDS011;40471;44.534;18.644;2023-05-20T04:53:22;28.85;;;14.05;;
52768;SDS011;40471;44.534;18.644;2023-05-20T04:55:48;19.17;;;12.18;;
52768;SDS011;40471;44.534;18.644;2023-05-20T04:58:18;18.00;;;12.75;;
52768;SDS011;40471;44.534;18.644;2023-05-20T05:00:44;19.23;;;13.23;;
52768;SDS011;40471;44.534;18.644;2023-05-20T05:03:10;20.33;;;11.63;;
52768;SDS011;40471;44.534;18.644;2023-05-20T05:05:39;16.48;;;11.63;;
52768;SDS011;40471;44.534;18.644;2023-05-20T05:08:06;16.83;;;10.93;;
52768;SDS011;40471;44.534;18.644;2023-05-20T05:10:33;19.42;;;11.52;;
52768;SDS011;40471;44.534;18.644;2023-05-20T05:13:00;19.88;;;11.98;;
52768;SDS011;40471;44.534;18.644;2023-05-20T05:15:26;18.02;;;11.40;;
52768;SDS011;40471;44.534;18.644;2023-05-20T05:17:52;19.90;;;10.80;;
52768;SDS011;40471;44.534;18.644;2023-05-20T05:20:18;23.42;;;14.85;;
52768;SDS011;40471;44.534;18.644;2023-05-20T05:22:44;20.50;;;13.65;;
52768;SDS011;40471;44.534;18.644;2023-05-20T05:25:10;22.30;;;13.47;;
52768;SDS011;40471;44.534;18.644;2023-05-20T05:27:37;26.52;;;16.77;;
52768;SDS011;40471;44.534;18.644;2023-05-20T05:30:03;23.55;;;16.20;;
52768;SDS011;40471;44.534;18.644;2023-05-20T05:32:30;24.98;;;16.45;;
52768;SDS011;40471;44.534;18.644;2023-05-20T05:34:56;22.08;;;15.60;;
52768;SDS011;40471;44.534;18.644;2023-05-20T05:37:22;22.90;;;16.33;;
52768;SDS011;40471;44.534;18.644;2023-05-20T05:39:48;26.37;;;15.20;;
52768;SDS011;40471;44.534;18.644;2023-05-20T05:42:14;31.20;;;16.85;;
52768;SDS011;40471;44.534;18.644;2023-05-20T05:44:40;24.38;;;15.63;;
52768;SDS011;40471;44.534;18.644;2023-05-20T05:47:06;24.43;;;16.70;;
52768;SDS011;40471;44.534;18.644;2023-05-20T05:49:32;24.88;;;16.65;;
52768;SDS011;40471;44.534;18.644;2023-05-20T05:54:24;28.05;;;17.70;;
52768;SDS011;40471;44.534;18.644;2023-05-20T05:56:50;24.67;;;16.17;;
52768;SDS011;40471;44.534;18.644;2023-05-20T06:01:43;26.48;;;15.93;;
52768;SDS011;40471;44.534;18.644;2023-05-20T06:04:08;22.73;;;15.15;;
52768;SDS011;40471;44.534;18.644;2023-05-20T06:06:34;28.07;;;15.03;;
52768;SDS011;40471;44.534;18.644;2023-05-20T06:11:26;17.17;;;12.35;;
52768;SDS011;40471;44.534;18.644;2023-05-20T06:13:52;21.67;;;13.53;;
52768;SDS011;40471;44.534;18.644;2023-05-20T06:16:18;23.23;;;14.50;;
52768;SDS011;40471;44.534;18.644;2023-05-20T06:18:47;24.55;;;16.35;;
52768;SDS011;40471;44.534;18.644;2023-05-20T06:21:15;28.83;;;15.23;;
52768;SDS011;40471;44.534;18.644;2023-05-20T06:23:41;20.75;;;14.13;;
52768;SDS011;40471;44.534;18.644;2023-05-20T06:26:07;26.77;;;16.08;;
52768;SDS011;40471;44.534;18.644;2023-05-20T06:28:33;25.70;;;17.27;;
52768;SDS011;40471;44.534;18.644;2023-05-20T06:30:58;29.67;;;18.52;;
52768;SDS011;40471;44.534;18.644;2023-05-20T06:33:25;24.80;;;16.95;;
52768;SDS011;40471;44.534;18.644;2023-05-20T06:35:53;28.98;;;16.77;;
52768;SDS011;40471;44.534;18.644;2023-05-20T06:38:19;25.13;;;15.57;;
52768;SDS011;40471;44.534;18.644;2023-05-20T06:40:45;21.83;;;14.00;;
52768;SDS011;40471;44.534;18.644;2023-05-20T06:43:15;20.27;;;14.80;;
52768;SDS011;40471;44.534;18.644;2023-05-20T06:45:41;26.40;;;16.15;;
52768;SDS011;40471;44.534;18.644;2023-05-20T06:48:08;23.38;;;16.75;;
52768;SDS011;40471;44.534;18.644;2023-05-20T06:50:34;26.33;;;15.40;;
52768;SDS011;40471;44.534;18.644;2023-05-20T06:53:00;23.95;;;15.68;;
52768;SDS011;40471;44.534;18.644;2023-05-20T06:55:25;22.15;;;13.50;;
52768;SDS011;40471;44.534;18.644;2023-05-20T06:57:51;22.00;;;15.52;;
52768;SDS011;40471;44.534;18.644;2023-05-20T07:00:17;20.38;;;13.40;;
52768;SDS011;40471;44.534;18.644;2023-05-20T07:02:43;24.17;;;14.45;;
52768;SDS011;40471;44.534;18.644;2023-05-20T07:07:35;21.98;;;14.60;;
52768;SDS011;40471;44.534;18.644;2023-05-20T07:10:01;25.65;;;17.40;;
52768;SDS011;40471;44.534;18.644;2023-05-20T07:12:29;23.67;;;15.10;;
52768;SDS011;40471;44.534;18.644;2023-05-20T07:14:56;19.52;;;14.40;;
52768;SDS011;40471;44.534;18.644;2023-05-20T07:17:21;37.00;;;14.60;;
52768;SDS011;40471;44.534;18.644;2023-05-20T07:19:48;23.45;;;17.67;;
52768;SDS011;40471;44.534;18.644;2023-05-20T07:22:14;22.98;;;16.60;;
52768;SDS011;40471;44.534;18.644;2023-05-20T07:24:40;23.45;;;15.43;;
52768;SDS011;40471;44.534;18.644;2023-05-20T07:27:06;22.27;;;15.90;;
52768;SDS011;40471;44.534;18.644;2023-05-20T07:29:32;17.85;;;14.38;;
52768;SDS011;40471;44.534;18.644;2023-05-20T07:31:59;19.70;;;16.75;;
52768;SDS011;40471;44.534;18.644;2023-05-20T07:34:24;27.92;;;16.05;;
52768;SDS011;40471;44.534;18.644;2023-05-20T07:36:50;21.85;;;18.38;;
52768;SDS011;40471;44.534;18.644;2023-05-20T07:39:17;25.35;;;16.00;;
52768;SDS011;40471;44.534;18.644;2023-05-20T07:41:43;24.95;;;17.95;;
52768;SDS011;40471;44.534;18.644;2023-05-20T07:44:09;24.60;;;17.25;;
52768;SDS011;40471;44.534;18.644;2023-05-20T07:46:37;23.10;;;16.30;;
52768;SDS011;40471;44.534;18.644;2023-05-20T07:49:04;33.05;;;16.40;;
52768;SDS011;40471;44.534;18.644;2023-05-20T07:53:56;22.42;;;17.27;;
52768;SDS011;40471;44.534;18.644;2023-05-20T07:56:22;26.00;;;14.93;;
52768;SDS011;40471;44.534;18.644;2023-05-20T07:58:52;22.75;;;16.83;;
52768;SDS011;40471;44.534;18.644;2023-05-20T08:01:19;22.52;;;14.60;;
52768;SDS011;40471;44.534;18.644;2023-05-20T08:03:45;22.05;;;14.93;;
52768;SDS011;40471;44.534;18.644;2023-05-20T08:06:11;23.33;;;15.68;;
52768;SDS011;40471;44.534;18.644;2023-05-20T08:08:37;20.17;;;14.00;;
52768;SDS011;40471;44.534;18.644;2023-05-20T08:11:05;19.52;;;15.75;;
52768;SDS011;40471;44.534;18.644;2023-05-20T08:13:31;20.33;;;14.68;;
52768;SDS011;40471;44.534;18.644;2023-05-20T08:15:57;19.23;;;15.77;;
52768;SDS011;40471;44.534;18.644;2023-05-20T08:18:23;19.38;;;15.20;;
52768;SDS011;40471;44.534;18.644;2023-05-20T08:20:49;17.75;;;14.45;;
52768;SDS011;40471;44.534;18.644;2023-05-20T08:23:15;23.08;;;15.35;;
52768;SDS011;40471;44.534;18.644;2023-05-20T08:25:41;21.60;;;14.35;;
52768;SDS011;40471;44.534;18.644;2023-05-20T08:28:07;21.83;;;14.82;;
52768;SDS011;40471;44.534;18.644;2023-05-20T08:30:32;18.40;;;13.40;;
52768;SDS011;40471;44.534;18.644;2023-05-20T08:32:59;28.83;;;16.85;;
52768;SDS011;40471;44.534;18.644;2023-05-20T08:35:25;16.15;;;14.10;;
52768;SDS011;40471;44.534;18.644;2023-05-20T08:37:51;28.55;;;15.45;;
52768;SDS011;40471;44.534;18.644;2023-05-20T08:40:19;22.02;;;16.15;;
52768;SDS011;40471;44.534;18.644;2023-05-20T08:42:47;23.45;;;15.55;;
52768;SDS011;40471;44.534;18.644;2023-05-20T08:45:16;26.02;;;16.33;;
52768;SDS011;40471;44.534;18.644;2023-05-20T08:47:43;15.30;;;13.68;;
52768;SDS011;40471;44.534;18.644;2023-05-20T08:50:10;27.58;;;14.63;;
52768;SDS011;40471;44.534;18.644;2023-05-20T08:52:37;32.85;;;16.65;;
52768;SDS011;40471;44.534;18.644;2023-05-20T08:55:13;31.65;;;14.60;;
52768;SDS011;40471;44.534;18.644;2023-05-20T08:57:53;17.92;;;13.48;;
52768;SDS011;40471;44.534;18.644;2023-05-20T09:00:20;24.52;;;13.70;;
52768;SDS011;40471;44.534;18.644;2023-05-20T09:02:51;15.93;;;14.30;;
52768;SDS011;40471;44.534;18.644;2023-05-20T09:05:17;17.40;;;12.35;;
52768;SDS011;40471;44.534;18.644;2023-05-20T09:07:43;21.45;;;13.38;;
52768;SDS011;40471;44.534;18.644;2023-05-20T09:10:09;18.92;;;13.98;;
52768;SDS011;40471;44.534;18.644;2023-05-20T09:12:35;21.48;;;13.50;;
52768;SDS011;40471;44.534;18.644;2023-05-20T09:15:02;17.75;;;13.57;;
52768;SDS011;40471;44.534;18.644;2023-05-20T09:17:28;21.63;;;12.73;;
52768;SDS011;40471;44.534;18.644;2023-05-20T09:19:54;18.17;;;14.13;;
52768;SDS011;40471;44.534;18.644;2023-05-20T09:22:21;18.45;;;14.45;;
52768;SDS011;40471;44.534;18.644;2023-05-20T09:24:48;15.18;;;12.80;;
52768;SDS011;40471;44.534;18.644;2023-05-20T09:27:14;16.80;;;11.68;;
52768;SDS011;40471;44.534;18.644;2023-05-20T09:29:41;18.63;;;13.10;;
52768;SDS011;40471;44.534;18.644;2023-05-20T09:32:08;12.63;;;11.20;;
52768;SDS011;40471;44.534;18.644;2023-05-20T09:34:35;11.70;;;10.00;;
52768;SDS011;40471;44.534;18.644;2023-05-20T09:37:06;16.60;;;11.00;;
52768;SDS011;40471;44.534;18.644;2023-05-20T09:39:33;21.02;;;11.23;;
52768;SDS011;40471;44.534;18.644;2023-05-20T09:42:14;19.42;;;11.38;;
52768;SDS011;40471;44.534;18.644;2023-05-20T09:44:45;12.93;;;9.15;;
52768;SDS011;40471;44.534;18.644;2023-05-20T09:47:13;15.13;;;10.07;;
52768;SDS011;40471;44.534;18.644;2023-05-20T09:49:40;15.63;;;8.93;;
52768;SDS011;40471;44.534;18.644;2023-05-20T09:52:06;14.40;;;9.30;;
52768;SDS011;40471;44.534;18.644;2023-05-20T09:54:33;10.90;;;9.00;;
52768;SDS011;40471;44.534;18.644;2023-05-20T09:57:00;14.02;;;9.32;;
52768;SDS011;40471;44.534;18.644;2023-05-20T09:59:27;6.32;;;4.88;;
52768;SDS011;40471;44.534;18.644;2023-05-20T10:01:55;13.05;;;4.70;;
52768;SDS011;40471;44.534;18.644;2023-05-20T10:04:21;7.30;;;4.93;;
52768;SDS011;40471;44.534;18.644;2023-05-20T10:12:43;8.90;;;4.18;;
52768;SDS011;40471;44.534;18.644;2023-05-20T10:18:54;6.60;;;3.95;;
52768;SDS011;40471;44.534;18.644;2023-05-20T10:21:16;9.45;;;6.55;;
52768;SDS011;40471;44.534;18.644;2023-05-20T10:23:48;7.82;;;4.38;;
52768;SDS011;40471;44.534;18.644;2023-05-20T10:26:15;7.68;;;3.90;;
52768;SDS011;40471;44.534;18.644;2023-05-20T10:28:42;17.88;;;5.07;;
52768;SDS011;40471;44.534;18.644;2023-05-20T10:33:48;11.93;;;5.03;;
52768;SDS011;40471;44.534;18.644;2023-05-20T10:36:27;8.32;;;4.20;;
52768;SDS011;40471;44.534;18.644;2023-05-20T10:38:56;6.70;;;4.25;;
52768;SDS011;40471;44.534;18.644;2023-05-20T10:41:26;7.43;;;3.67;;
52768;SDS011;40471;44.534;18.644;2023-05-20T10:43:59;23.42;;;6.28;;
52768;SDS011;40471;44.534;18.644;2023-05-20T10:50:13;26.15;;;4.93;;
52768;SDS011;40471;44.534;18.644;2023-05-20T10:56:38;12.95;;;4.68;;
52768;SDS011;40471;44.534;18.644;2023-05-20T10:59:05;8.10;;;4.47;;
52768;SDS011;40471;44.534;18.644;2023-05-20T11:01:32;14.88;;;5.38;;
52768;SDS011;40471;44.534;18.644;2023-05-20T11:03:58;11.13;;;6.32;;
52768;SDS011;40471;44.534;18.644;2023-05-20T11:06:26;10.65;;;6.38;;
52768;SDS011;40471;44.534;18.644;2023-05-20T11:08:53;7.45;;;4.30;;
52768;SDS011;40471;44.534;18.644;2023-05-20T11:11:20;8.50;;;5.07;;
52768;SDS011;40471;44.534;18.644;2023-05-20T11:13:55;8.38;;;5.05;;
52768;SDS011;40471;44.534;18.644;2023-05-20T11:16:41;12.05;;;6.00;;
52768;SDS011;40471;44.534;18.644;2023-05-20T11:19:07;8.10;;;5.90;;
52768;SDS011;40471;44.534;18.644;2023-05-20T11:21:42;6.57;;;4.38;;
52768;SDS011;40471;44.534;18.644;2023-05-20T11:24:11;10.63;;;5.90;;
52768;SDS011;40471;44.534;18.644;2023-05-20T11:26:38;12.82;;;5.68;;
52768;SDS011;40471;44.534;18.644;2023-05-20T11:29:04;6.70;;;4.75;;
52768;SDS011;40471;44.534;18.644;2023-05-20T11:31:30;23.85;;;7.60;;
52768;SDS011;40471;44.534;18.644;2023-05-20T11:33:59;11.75;;;5.55;;
52768;SDS011;40471;44.534;18.644;2023-05-20T11:36:29;7.07;;;4.75;;
52768;SDS011;40471;44.534;18.644;2023-05-20T11:38:56;10.52;;;5.28;;
52768;SDS011;40471;44.534;18.644;2023-05-20T11:41:23;8.20;;;5.72;;
52768;SDS011;40471;44.534;18.644;2023-05-20T11:43:56;9.40;;;6.47;;
52768;SDS011;40471;44.534;18.644;2023-05-20T11:46:26;5.53;;;5.03;;
52768;SDS011;40471;44.534;18.644;2023-05-20T11:48:53;6.13;;;4.82;;
52768;SDS011;40471;44.534;18.644;2023-05-20T11:51:22;7.63;;;6.03;;
52768;SDS011;40471;44.534;18.644;2023-05-20T11:53:51;11.77;;;5.07;;
52768;SDS011;40471;44.534;18.644;2023-05-20T11:56:17;8.38;;;5.07;;
52768;SDS011;40471;44.534;18.644;2023-05-20T11:58:42;5.85;;;5.07;;
52768;SDS011;40471;44.534;18.644;2023-05-20T12:01:09;5.93;;;4.50;;
52768;SDS011;40471;44.534;18.644;2023-05-20T12:03:35;4.88;;;4.47;;
52768;SDS011;40471;44.534;18.644;2023-05-20T12:06:01;7.63;;;4.32;;
52768;SDS011;40471;44.534;18.644;2023-05-20T12:08:27;7.32;;;4.93;;
52768;SDS011;40471;44.534;18.644;2023-05-20T12:10:53;7.85;;;5.32;;
52768;SDS011;40471;44.534;18.644;2023-05-20T12:13:19;5.03;;;4.05;;
52768;SDS011;40471;44.534;18.644;2023-05-20T12:15:45;6.15;;;4.40;;
52768;SDS011;40471;44.534;18.644;2023-05-20T12:18:11;6.40;;;5.13;;
52768;SDS011;40471;44.534;18.644;2023-05-20T12:20:36;8.30;;;5.10;;
52768;SDS011;40471;44.534;18.644;2023-05-20T12:23:03;10.90;;;3.97;;
52768;SDS011;40471;44.534;18.644;2023-05-20T12:25:28;10.00;;;4.20;;
52768;SDS011;40471;44.534;18.644;2023-05-20T12:27:55;8.30;;;5.30;;
52768;SDS011;40471;44.534;18.644;2023-05-20T12:30:21;7.93;;;4.20;;
52768;SDS011;40471;44.534;18.644;2023-05-20T12:32:48;5.88;;;3.55;;
52768;SDS011;40471;44.534;18.644;2023-05-20T12:35:15;15.20;;;4.70;;
52768;SDS011;40471;44.534;18.644;2023-05-20T12:37:42;5.35;;;3.58;;
52768;SDS011;40471;44.534;18.644;2023-05-20T12:40:09;6.55;;;4.35;;
52768;SDS011;40471;44.534;18.644;2023-05-20T12:42:37;6.93;;;4.00;;
52768;SDS011;40471;44.534;18.644;2023-05-20T12:45:03;4.43;;;3.88;;
52768;SDS011;40471;44.534;18.644;2023-05-20T12:47:30;15.63;;;4.63;;
52768;SDS011;40471;44.534;18.644;2023-05-20T12:49:57;8.35;;;3.85;;
52768;SDS011;40471;44.534;18.644;2023-05-20T12:52:24;7.80;;;5.10;;
52768;SDS011;40471;44.534;18.644;2023-05-20T12:54:50;8.68;;;4.72;;
52768;SDS011;40471;44.534;18.644;2023-05-20T12:57:17;7.28;;;5.03;;
52768;SDS011;40471;44.534;18.644;2023-05-20T12:59:43;10.02;;;4.65;;
52768;SDS011;40471;44.534;18.644;2023-05-20T13:02:10;6.60;;;4.55;;
52768;SDS011;40471;44.534;18.644;2023-05-20T13:04:35;8.25;;;4.15;;
52768;SDS011;40471;44.534;18.644;2023-05-20T13:07:01;19.80;;;5.68;;
52768;SDS011;40471;44.534;18.644;2023-05-20T13:09:27;8.35;;;3.22;;
52768;SDS011;40471;44.534;18.644;2023-05-20T13:11:53;12.02;;;4.40;;
52768;SDS011;40471;44.534;18.644;2023-05-20T13:14:19;9.98;;;3.58;;
52768;SDS011;40471;44.534;18.644;2023-05-20T13:16:46;20.67;;;4.63;;
52768;SDS011;40471;44.534;18.644;2023-05-20T13:19:13;8.43;;;4.60;;
52768;SDS011;40471;44.534;18.644;2023-05-20T13:21:38;3.83;;;3.40;;
52768;SDS011;40471;44.534;18.644;2023-05-20T13:24:04;10.68;;;4.88;;
52768;SDS011;40471;44.534;18.644;2023-05-20T13:26:30;7.50;;;4.18;;
52768;SDS011;40471;44.534;18.644;2023-05-20T13:28:56;10.30;;;4.53;;
52768;SDS011;40471;44.534;18.644;2023-05-20T13:31:22;6.13;;;3.33;;
52768;SDS011;40471;44.534;18.644;2023-05-20T13:33:48;4.40;;;2.92;;
52768;SDS011;40471;44.534;18.644;2023-05-20T13:36:14;12.70;;;3.65;;
52768;SDS011;40471;44.534;18.644;2023-05-20T13:38:40;8.35;;;4.40;;
52768;SDS011;40471;44.534;18.644;2023-05-20T13:41:06;5.50;;;3.58;;
52768;SDS011;40471;44.534;18.644;2023-05-20T13:43:32;14.63;;;4.10;;
52768;SDS011;40471;44.534;18.644;2023-05-20T13:45:58;9.20;;;4.50;;
52768;SDS011;40471;44.534;18.644;2023-05-20T13:48:24;8.63;;;4.32;;
52768;SDS011;40471;44.534;18.644;2023-05-20T13:50:49;14.70;;;4.38;;
52768;SDS011;40471;44.534;18.644;2023-05-20T13:53:15;7.55;;;3.80;;
52768;SDS011;40471;44.534;18.644;2023-05-20T13:55:41;10.80;;;5.43;;
52768;SDS011;40471;44.534;18.644;2023-05-20T13:58:07;6.35;;;3.33;;
52768;SDS011;40471;44.534;18.644;2023-05-20T14:00:36;8.93;;;3.25;;
52768;SDS011;40471;44.534;18.644;2023-05-20T14:03:02;4.40;;;3.60;;
52768;SDS011;40471;44.534;18.644;2023-05-20T14:05:31;5.00;;;3.03;;
52768;SDS011;40471;44.534;18.644;2023-05-20T14:07:57;10.02;;;4.32;;
52768;SDS011;40471;44.534;18.644;2023-05-20T14:10:24;9.77;;;3.35;;
52768;SDS011;40471;44.534;18.644;2023-05-20T14:12:51;8.63;;;2.85;;
52768;SDS011;40471;44.534;18.644;2023-05-20T14:15:17;6.53;;;2.78;;
52768;SDS011;40471;44.534;18.644;2023-05-20T14:17:43;7.10;;;3.60;;
52768;SDS011;40471;44.534;18.644;2023-05-20T14:20:09;3.78;;;2.58;;
52768;SDS011;40471;44.534;18.644;2023-05-20T14:22:35;3.17;;;2.83;;
52768;SDS011;40471;44.534;18.644;2023-05-20T14:25:01;6.25;;;3.00;;
52768;SDS011;40471;44.534;18.644;2023-05-20T14:27:28;9.65;;;3.75;;
52768;SDS011;40471;44.534;18.644;2023-05-20T14:29:54;5.18;;;3.60;;
52768;SDS011;40471;44.534;18.644;2023-05-20T14:32:20;15.38;;;3.45;;
52768;SDS011;40471;44.534;18.644;2023-05-20T14:34:46;3.40;;;3.05;;
52768;SDS011;40471;44.534;18.644;2023-05-20T14:37:11;8.52;;;3.70;;
52768;SDS011;40471;44.534;18.644;2023-05-20T14:39:37;5.13;;;3.22;;
52768;SDS011;40471;44.534;18.644;2023-05-20T14:42:03;8.40;;;3.22;;
52768;SDS011;40471;44.534;18.644;2023-05-20T14:44:30;6.65;;;2.80;;
52768;SDS011;40471;44.534;18.644;2023-05-20T14:46:55;7.07;;;3.22;;
52768;SDS011;40471;44.534;18.644;2023-05-20T14:49:21;8.63;;;4.07;;
52768;SDS011;40471;44.534;18.644;2023-05-20T14:51:47;5.15;;;2.97;;